sensor_id;sensor_type;location;lat;lon;timestamp;P1;durP1;ratioP1;P2;durP2;ratioP2
53903;SDS011;39812;52.430;16.936;2024-03-25T00:00:11;8.80;;;5.15;;
53903;SDS011;39812;52.430;16.936;2024-03-25T00:02:38;13.50;;;5.85;;
53903;SDS011;39812;52.430;16.936;2024-03-25T00:05:05;10.20;;;5.03;;
53903;SDS011;39812;52.430;16.936;2024-03-25T00:07:35;10.95;;;5.82;;
53903;SDS011;39812;52.430;16.936;2024-03-25T00:10:01;11.38;;;6.30;;
53903;SDS011;39812;52.430;16.936;2024-03-25T00:12:27;10.52;;;5.22;;
53903;SDS011;39812;52.430;16.936;2024-03-25T00:14:53;11.35;;;6.10;;
53903;SDS011;39812;52.430;16.936;2024-03-25T00:17:19;11.25;;;4.90;;
53903;SDS011;39812;52.430;16.936;2024-03-25T00:19:45;9.75;;;5.50;;
53903;SDS011;39812;52.430;16.936;2024-03-25T00:22:16;10.02;;;5.10;;
53903;SDS011;39812;52.430;16.936;2024-03-25T00:24:45;9.68;;;4.38;;
53903;SDS011;39812;52.430;16.936;2024-03-25T00:27:11;7.28;;;5.00;;
53903;SDS011;39812;52.430;16.936;2024-03-25T00:29:37;8.05;;;4.20;;
53903;SDS011;39812;52.430;16.936;2024-03-25T00:32:03;10.90;;;5.43;;
53903;SDS011;39812;52.430;16.936;2024-03-25T00:34:29;7.22;;;4.25;;
53903;SDS011;39812;52.430;16.936;2024-03-25T00:36:55;8.32;;;4.07;;
53903;SDS011;39812;52.430;16.936;2024-03-25T00:39:20;12.30;;;5.53;;
53903;SDS011;39812;52.430;16.936;2024-03-25T00:41:49;8.80;;;4.68;;
53903;SDS011;39812;52.430;16.936;2024-03-25T00:44:15;8.95;;;4.70;;
53903;SDS011;39812;52.430;16.936;2024-03-25T00:46:40;10.02;;;4.80;;
53903;SDS011;39812;52.430;16.936;2024-03-25T00:49:07;9.77;;;5.35;;
53903;SDS011;39812;52.430;16.936;2024-03-25T00:51:33;8.13;;;4.65;;
53903;SDS011;39812;52.430;16.936;2024-03-25T00:53:59;7.38;;;4.28;;
53903;SDS011;39812;52.430;16.936;2024-03-25T00:56:24;8.07;;;4.35;;
53903;SDS011;39812;52.430;16.936;2024-03-25T00:58:51;9.23;;;4.53;;
53903;SDS011;39812;52.430;16.936;2024-03-25T01:01:16;8.68;;;4.68;;
53903;SDS011;39812;52.430;16.936;2024-03-25T01:03:42;8.75;;;4.60;;
53903;SDS011;39812;52.430;16.936;2024-03-25T01:06:07;9.38;;;4.50;;
53903;SDS011;39812;52.430;16.936;2024-03-25T01:08:33;8.65;;;5.25;;
53903;SDS011;39812;52.430;16.936;2024-03-25T01:10:59;12.30;;;4.95;;
53903;SDS011;39812;52.430;16.936;2024-03-25T01:13:25;9.95;;;3.88;;
53903;SDS011;39812;52.430;16.936;2024-03-25T01:15:51;11.20;;;4.95;;
53903;SDS011;39812;52.430;16.936;2024-03-25T01:18:17;8.55;;;5.05;;
53903;SDS011;39812;52.430;16.936;2024-03-25T01:20:43;7.57;;;3.97;;
53903;SDS011;39812;52.430;16.936;2024-03-25T01:23:09;8.90;;;4.72;;
53903;SDS011;39812;52.430;16.936;2024-03-25T01:25:35;9.80;;;4.45;;
53903;SDS011;39812;52.430;16.936;2024-03-25T01:28:01;9.93;;;4.32;;
53903;SDS011;39812;52.430;16.936;2024-03-25T01:30:27;7.45;;;3.92;;
53903;SDS011;39812;52.430;16.936;2024-03-25T01:32:53;8.07;;;3.97;;
53903;SDS011;39812;52.430;16.936;2024-03-25T01:35:19;7.20;;;3.90;;
53903;SDS011;39812;52.430;16.936;2024-03-25T01:37:45;10.10;;;4.63;;
53903;SDS011;39812;52.430;16.936;2024-03-25T01:40:11;9.27;;;4.28;;
53903;SDS011;39812;52.430;16.936;2024-03-25T01:42:37;6.95;;;3.88;;
53903;SDS011;39812;52.430;16.936;2024-03-25T01:45:03;6.40;;;3.85;;
53903;SDS011;39812;52.430;16.936;2024-03-25T01:47:30;6.75;;;3.35;;
53903;SDS011;39812;52.430;16.936;2024-03-25T01:49:58;9.27;;;4.13;;
53903;SDS011;39812;52.430;16.936;2024-03-25T01:52:25;4.35;;;2.83;;
53903;SDS011;39812;52.430;16.936;2024-03-25T01:54:51;7.93;;;3.47;;
53903;SDS011;39812;52.430;16.936;2024-03-25T01:57:18;6.63;;;3.10;;
53903;SDS011;39812;52.430;16.936;2024-03-25T01:59:44;6.25;;;3.83;;
53903;SDS011;39812;52.430;16.936;2024-03-25T02:02:11;5.20;;;3.00;;
53903;SDS011;39812;52.430;16.936;2024-03-25T02:04:38;6.15;;;3.35;;
53903;SDS011;39812;52.430;16.936;2024-03-25T02:07:07;6.05;;;3.53;;
53903;SDS011;39812;52.430;16.936;2024-03-25T02:09:35;5.45;;;3.33;;
53903;SDS011;39812;52.430;16.936;2024-03-25T02:12:01;6.90;;;3.53;;
53903;SDS011;39812;52.430;16.936;2024-03-25T02:14:27;7.57;;;3.88;;
53903;SDS011;39812;52.430;16.936;2024-03-25T02:16:53;7.22;;;3.30;;
53903;SDS011;39812;52.430;16.936;2024-03-25T02:19:19;7.25;;;3.13;;
53903;SDS011;39812;52.430;16.936;2024-03-25T02:21:48;5.13;;;3.15;;
53903;SDS011;39812;52.430;16.936;2024-03-25T02:24:14;8.35;;;3.47;;
53903;SDS011;39812;52.430;16.936;2024-03-25T02:26:41;4.57;;;3.40;;
53903;SDS011;39812;52.430;16.936;2024-03-25T02:29:10;4.72;;;3.47;;
53903;SDS011;39812;52.430;16.936;2024-03-25T02:31:36;4.32;;;2.95;;
53903;SDS011;39812;52.430;16.936;2024-03-25T02:34:02;5.43;;;3.15;;
53903;SDS011;39812;52.430;16.936;2024-03-25T02:36:27;5.57;;;3.95;;
53903;SDS011;39812;52.430;16.936;2024-03-25T02:38:53;6.18;;;4.55;;
53903;SDS011;39812;52.430;16.936;2024-03-25T02:41:19;6.55;;;3.58;;
53903;SDS011;39812;52.430;16.936;2024-03-25T02:43:47;8.40;;;4.00;;
53903;SDS011;39812;52.430;16.936;2024-03-25T02:46:13;7.25;;;4.45;;
53903;SDS011;39812;52.430;16.936;2024-03-25T02:48:39;6.43;;;4.15;;
53903;SDS011;39812;52.430;16.936;2024-03-25T02:51:05;6.05;;;3.60;;
53903;SDS011;39812;52.430;16.936;2024-03-25T02:53:31;9.52;;;3.70;;
53903;SDS011;39812;52.430;16.936;2024-03-25T02:55:56;7.32;;;3.97;;
53903;SDS011;39812;52.430;16.936;2024-03-25T02:58:22;5.35;;;3.50;;
53903;SDS011;39812;52.430;16.936;2024-03-25T03:00:47;6.88;;;3.97;;
53903;SDS011;39812;52.430;16.936;2024-03-25T03:03:13;7.50;;;4.25;;
53903;SDS011;39812;52.430;16.936;2024-03-25T03:05:39;8.52;;;4.13;;
53903;SDS011;39812;52.430;16.936;2024-03-25T03:08:04;6.47;;;4.30;;
53903;SDS011;39812;52.430;16.936;2024-03-25T03:10:30;6.38;;;4.10;;
53903;SDS011;39812;52.430;16.936;2024-03-25T03:12:56;7.93;;;4.40;;
53903;SDS011;39812;52.430;16.936;2024-03-25T03:15:21;7.30;;;4.90;;
53903;SDS011;39812;52.430;16.936;2024-03-25T03:17:47;6.85;;;4.07;;
53903;SDS011;39812;52.430;16.936;2024-03-25T03:20:12;5.78;;;4.07;;
53903;SDS011;39812;52.430;16.936;2024-03-25T03:22:38;6.65;;;4.55;;
53903;SDS011;39812;52.430;16.936;2024-03-25T03:25:03;7.05;;;3.83;;
53903;SDS011;39812;52.430;16.936;2024-03-25T03:27:29;6.20;;;4.75;;
53903;SDS011;39812;52.430;16.936;2024-03-25T03:29:55;8.13;;;4.15;;
53903;SDS011;39812;52.430;16.936;2024-03-25T03:32:21;9.65;;;4.43;;
53903;SDS011;39812;52.430;16.936;2024-03-25T03:34:46;7.20;;;4.60;;
53903;SDS011;39812;52.430;16.936;2024-03-25T03:37:12;7.32;;;4.68;;
53903;SDS011;39812;52.430;16.936;2024-03-25T03:39:38;6.47;;;3.85;;
53903;SDS011;39812;52.430;16.936;2024-03-25T03:42:03;6.68;;;3.92;;
53903;SDS011;39812;52.430;16.936;2024-03-25T03:44:29;12.60;;;4.85;;
53903;SDS011;39812;52.430;16.936;2024-03-25T03:46:55;7.75;;;4.78;;
53903;SDS011;39812;52.430;16.936;2024-03-25T03:49:21;6.45;;;4.75;;
53903;SDS011;39812;52.430;16.936;2024-03-25T03:51:46;7.70;;;4.57;;
53903;SDS011;39812;52.430;16.936;2024-03-25T03:54:12;9.38;;;5.13;;
53903;SDS011;39812;52.430;16.936;2024-03-25T03:56:37;10.02;;;5.28;;
53903;SDS011;39812;52.430;16.936;2024-03-25T03:59:03;6.65;;;3.92;;
53903;SDS011;39812;52.430;16.936;2024-03-25T04:01:29;7.50;;;4.70;;
53903;SDS011;39812;52.430;16.936;2024-03-25T04:03:54;7.22;;;4.60;;
53903;SDS011;39812;52.430;16.936;2024-03-25T04:06:20;6.85;;;4.32;;
53903;SDS011;39812;52.430;16.936;2024-03-25T04:08:46;10.70;;;5.35;;
53903;SDS011;39812;52.430;16.936;2024-03-25T04:11:11;6.85;;;4.93;;
53903;SDS011;39812;52.430;16.936;2024-03-25T04:13:37;10.23;;;6.05;;
53903;SDS011;39812;52.430;16.936;2024-03-25T04:16:03;8.75;;;5.20;;
53903;SDS011;39812;52.430;16.936;2024-03-25T04:18:30;8.13;;;4.72;;
53903;SDS011;39812;52.430;16.936;2024-03-25T04:20:57;7.88;;;4.70;;
53903;SDS011;39812;52.430;16.936;2024-03-25T04:23:23;9.25;;;4.88;;
53903;SDS011;39812;52.430;16.936;2024-03-25T04:25:49;9.00;;;4.80;;
53903;SDS011;39812;52.430;16.936;2024-03-25T04:28:15;11.15;;;6.03;;
53903;SDS011;39812;52.430;16.936;2024-03-25T04:30:41;11.95;;;5.13;;
53903;SDS011;39812;52.430;16.936;2024-03-25T04:33:07;10.30;;;5.78;;
53903;SDS011;39812;52.430;16.936;2024-03-25T04:35:33;9.02;;;6.10;;
53903;SDS011;39812;52.430;16.936;2024-03-25T04:37:59;9.30;;;5.75;;
53903;SDS011;39812;52.430;16.936;2024-03-25T04:40:24;12.27;;;5.97;;
53903;SDS011;39812;52.430;16.936;2024-03-25T04:42:50;10.95;;;6.07;;
53903;SDS011;39812;52.430;16.936;2024-03-25T04:45:16;9.57;;;5.68;;
53903;SDS011;39812;52.430;16.936;2024-03-25T04:47:42;12.10;;;6.18;;
53903;SDS011;39812;52.430;16.936;2024-03-25T04:50:07;9.55;;;5.75;;
53903;SDS011;39812;52.430;16.936;2024-03-25T04:52:34;10.63;;;5.72;;
53903;SDS011;39812;52.430;16.936;2024-03-25T04:54:59;10.73;;;5.75;;
53903;SDS011;39812;52.430;16.936;2024-03-25T04:57:25;9.18;;;5.53;;
53903;SDS011;39812;52.430;16.936;2024-03-25T04:59:50;11.35;;;7.07;;
53903;SDS011;39812;52.430;16.936;2024-03-25T05:02:16;9.73;;;5.85;;
53903;SDS011;39812;52.430;16.936;2024-03-25T05:04:42;12.52;;;6.80;;
53903;SDS011;39812;52.430;16.936;2024-03-25T05:07:08;10.18;;;5.93;;
53903;SDS011;39812;52.430;16.936;2024-03-25T05:09:33;8.88;;;5.82;;
53903;SDS011;39812;52.430;16.936;2024-03-25T05:11:59;11.13;;;7.60;;
53903;SDS011;39812;52.430;16.936;2024-03-25T05:14:25;11.23;;;6.80;;
53903;SDS011;39812;52.430;16.936;2024-03-25T05:16:50;14.20;;;7.18;;
53903;SDS011;39812;52.430;16.936;2024-03-25T05:19:17;11.45;;;5.63;;
53903;SDS011;39812;52.430;16.936;2024-03-25T05:21:43;5.78;;;3.55;;
53903;SDS011;39812;52.430;16.936;2024-03-25T05:24:09;7.82;;;3.75;;
53903;SDS011;39812;52.430;16.936;2024-03-25T05:26:35;3.20;;;2.00;;
53903;SDS011;39812;52.430;16.936;2024-03-25T05:29:00;5.82;;;2.83;;
53903;SDS011;39812;52.430;16.936;2024-03-25T05:31:26;5.93;;;2.83;;
53903;SDS011;39812;52.430;16.936;2024-03-25T05:33:52;4.05;;;2.22;;
53903;SDS011;39812;52.430;16.936;2024-03-25T05:36:18;5.10;;;2.53;;
53903;SDS011;39812;52.430;16.936;2024-03-25T05:38:43;4.25;;;2.63;;
53903;SDS011;39812;52.430;16.936;2024-03-25T05:41:09;4.68;;;2.72;;
53903;SDS011;39812;52.430;16.936;2024-03-25T05:43:35;6.25;;;2.58;;
53903;SDS011;39812;52.430;16.936;2024-03-25T05:46:02;4.32;;;2.40;;
53903;SDS011;39812;52.430;16.936;2024-03-25T05:48:27;4.93;;;3.25;;
53903;SDS011;39812;52.430;16.936;2024-03-25T05:51:03;6.00;;;3.38;;
53903;SDS011;39812;52.430;16.936;2024-03-25T05:53:30;5.93;;;3.38;;
53903;SDS011;39812;52.430;16.936;2024-03-25T05:55:56;5.22;;;2.83;;
53903;SDS011;39812;52.430;16.936;2024-03-25T05:58:24;5.55;;;3.00;;
53903;SDS011;39812;52.430;16.936;2024-03-25T06:00:49;5.45;;;3.25;;
53903;SDS011;39812;52.430;16.936;2024-03-25T06:03:15;4.03;;;2.50;;
53903;SDS011;39812;52.430;16.936;2024-03-25T06:05:41;5.72;;;3.50;;
53903;SDS011;39812;52.430;16.936;2024-03-25T06:08:07;6.13;;;3.60;;
53903;SDS011;39812;52.430;16.936;2024-03-25T06:10:41;5.50;;;3.33;;
53903;SDS011;39812;52.430;16.936;2024-03-25T06:13:06;5.85;;;3.40;;
53903;SDS011;39812;52.430;16.936;2024-03-25T06:15:32;5.60;;;3.15;;
53903;SDS011;39812;52.430;16.936;2024-03-25T06:17:57;6.88;;;3.22;;
53903;SDS011;39812;52.430;16.936;2024-03-25T06:20:23;5.25;;;2.78;;
53903;SDS011;39812;52.430;16.936;2024-03-25T06:22:49;6.53;;;3.10;;
53903;SDS011;39812;52.430;16.936;2024-03-25T06:25:15;4.93;;;2.85;;
53903;SDS011;39812;52.430;16.936;2024-03-25T06:27:42;7.60;;;3.03;;
53903;SDS011;39812;52.430;16.936;2024-03-25T06:30:09;5.05;;;2.80;;
53903;SDS011;39812;52.430;16.936;2024-03-25T06:35:38;5.60;;;3.38;;
53903;SDS011;39812;52.430;16.936;2024-03-25T06:38:04;6.68;;;3.65;;
53903;SDS011;39812;52.430;16.936;2024-03-25T06:40:30;6.38;;;4.05;;
53903;SDS011;39812;52.430;16.936;2024-03-25T06:42:56;7.60;;;4.90;;
53903;SDS011;39812;52.430;16.936;2024-03-25T06:45:22;8.88;;;5.13;;
53903;SDS011;39812;52.430;16.936;2024-03-25T06:47:48;8.02;;;3.97;;
53903;SDS011;39812;52.430;16.936;2024-03-25T06:50:14;9.38;;;5.00;;
53903;SDS011;39812;52.430;16.936;2024-03-25T06:52:39;9.95;;;5.53;;
53903;SDS011;39812;52.430;16.936;2024-03-25T06:55:06;13.65;;;5.47;;
53903;SDS011;39812;52.430;16.936;2024-03-25T06:57:33;12.80;;;6.93;;
53903;SDS011;39812;52.430;16.936;2024-03-25T06:59:58;13.80;;;6.55;;
53903;SDS011;39812;52.430;16.936;2024-03-25T07:02:24;14.18;;;6.72;;
53903;SDS011;39812;52.430;16.936;2024-03-25T07:04:50;14.43;;;7.22;;
53903;SDS011;39812;52.430;16.936;2024-03-25T07:07:16;12.30;;;6.72;;
53903;SDS011;39812;52.430;16.936;2024-03-25T07:09:41;13.10;;;7.05;;
53903;SDS011;39812;52.430;16.936;2024-03-25T07:12:07;10.23;;;6.30;;
53903;SDS011;39812;52.430;16.936;2024-03-25T07:14:33;14.23;;;6.63;;
53903;SDS011;39812;52.430;16.936;2024-03-25T07:16:59;11.48;;;6.88;;
53903;SDS011;39812;52.430;16.936;2024-03-25T07:19:25;12.07;;;6.32;;
53903;SDS011;39812;52.430;16.936;2024-03-25T07:21:50;13.15;;;7.00;;
53903;SDS011;39812;52.430;16.936;2024-03-25T07:24:16;11.60;;;6.65;;
53903;SDS011;39812;52.430;16.936;2024-03-25T07:26:42;14.68;;;8.00;;
53903;SDS011;39812;52.430;16.936;2024-03-25T07:29:07;13.50;;;7.03;;
53903;SDS011;39812;52.430;16.936;2024-03-25T07:31:33;13.95;;;7.60;;
53903;SDS011;39812;52.430;16.936;2024-03-25T07:33:59;14.52;;;7.78;;
53903;SDS011;39812;52.430;16.936;2024-03-25T07:36:25;13.68;;;7.75;;
53903;SDS011;39812;52.430;16.936;2024-03-25T07:38:50;14.57;;;7.68;;
53903;SDS011;39812;52.430;16.936;2024-03-25T07:41:16;17.13;;;9.15;;
53903;SDS011;39812;52.430;16.936;2024-03-25T07:43:41;15.07;;;7.72;;
53903;SDS011;39812;52.430;16.936;2024-03-25T07:46:07;14.32;;;8.55;;
53903;SDS011;39812;52.430;16.936;2024-03-25T07:48:33;15.90;;;9.18;;
53903;SDS011;39812;52.430;16.936;2024-03-25T07:51:00;14.70;;;7.78;;
53903;SDS011;39812;52.430;16.936;2024-03-25T07:53:26;16.10;;;8.77;;
53903;SDS011;39812;52.430;16.936;2024-03-25T07:55:52;14.80;;;8.02;;
53903;SDS011;39812;52.430;16.936;2024-03-25T07:58:17;14.23;;;7.55;;
53903;SDS011;39812;52.430;16.936;2024-03-25T08:00:43;16.48;;;8.20;;
53903;SDS011;39812;52.430;16.936;2024-03-25T08:03:08;14.35;;;8.32;;
53903;SDS011;39812;52.430;16.936;2024-03-25T08:05:35;13.93;;;8.23;;
53903;SDS011;39812;52.430;16.936;2024-03-25T08:08:01;12.73;;;7.57;;
53903;SDS011;39812;52.430;16.936;2024-03-25T08:10:26;16.77;;;8.40;;
53903;SDS011;39812;52.430;16.936;2024-03-25T08:12:52;14.23;;;7.10;;
53903;SDS011;39812;52.430;16.936;2024-03-25T08:15:18;12.55;;;7.55;;
53903;SDS011;39812;52.430;16.936;2024-03-25T08:17:43;15.48;;;7.97;;
53903;SDS011;39812;52.430;16.936;2024-03-25T08:20:09;9.98;;;5.43;;
53903;SDS011;39812;52.430;16.936;2024-03-25T08:22:35;15.07;;;8.05;;
53903;SDS011;39812;52.430;16.936;2024-03-25T08:25:01;15.20;;;7.75;;
53903;SDS011;39812;52.430;16.936;2024-03-25T08:27:27;16.30;;;8.35;;
53903;SDS011;39812;52.430;16.936;2024-03-25T08:29:53;12.90;;;6.97;;
53903;SDS011;39812;52.430;16.936;2024-03-25T08:32:19;12.23;;;7.20;;
53903;SDS011;39812;52.430;16.936;2024-03-25T08:34:44;15.80;;;7.75;;
53903;SDS011;39812;52.430;16.936;2024-03-25T08:37:11;11.10;;;5.97;;
53903;SDS011;39812;52.430;16.936;2024-03-25T08:39:36;8.68;;;5.07;;
53903;SDS011;39812;52.430;16.936;2024-03-25T08:42:02;11.85;;;5.97;;
53903;SDS011;39812;52.430;16.936;2024-03-25T08:44:28;9.40;;;5.63;;
53903;SDS011;39812;52.430;16.936;2024-03-25T08:46:55;11.65;;;5.40;;
53903;SDS011;39812;52.430;16.936;2024-03-25T08:49:20;8.27;;;4.28;;
53903;SDS011;39812;52.430;16.936;2024-03-25T08:51:46;6.22;;;3.88;;
53903;SDS011;39812;52.430;16.936;2024-03-25T08:54:12;8.70;;;4.68;;
53903;SDS011;39812;52.430;16.936;2024-03-25T08:56:37;7.03;;;4.07;;
53903;SDS011;39812;52.430;16.936;2024-03-25T08:59:04;5.57;;;4.18;;
53903;SDS011;39812;52.430;16.936;2024-03-25T09:01:29;6.47;;;3.15;;
53903;SDS011;39812;52.430;16.936;2024-03-25T09:03:55;6.05;;;2.92;;
53903;SDS011;39812;52.430;16.936;2024-03-25T09:06:21;7.70;;;3.53;;
53903;SDS011;39812;52.430;16.936;2024-03-25T09:08:48;5.97;;;3.00;;
53903;SDS011;39812;52.430;16.936;2024-03-25T09:11:32;6.95;;;3.00;;
53903;SDS011;39812;52.430;16.936;2024-03-25T09:13:57;6.05;;;3.60;;
53903;SDS011;39812;52.430;16.936;2024-03-25T09:16:23;5.57;;;3.20;;
53903;SDS011;39812;52.430;16.936;2024-03-25T09:18:49;4.32;;;2.40;;
53903;SDS011;39812;52.430;16.936;2024-03-25T09:21:15;4.78;;;3.08;;
53903;SDS011;39812;52.430;16.936;2024-03-25T09:23:40;6.13;;;2.97;;
53903;SDS011;39812;52.430;16.936;2024-03-25T09:26:06;9.25;;;3.75;;
53903;SDS011;39812;52.430;16.936;2024-03-25T09:28:32;5.00;;;3.25;;
53903;SDS011;39812;52.430;16.936;2024-03-25T09:30:57;5.57;;;3.72;;
53903;SDS011;39812;52.430;16.936;2024-03-25T09:33:23;6.90;;;3.25;;
53903;SDS011;39812;52.430;16.936;2024-03-25T09:35:49;6.18;;;2.97;;
53903;SDS011;39812;52.430;16.936;2024-03-25T09:38:14;4.65;;;3.05;;
53903;SDS011;39812;52.430;16.936;2024-03-25T09:40:40;4.25;;;2.70;;
53903;SDS011;39812;52.430;16.936;2024-03-25T09:43:06;4.18;;;2.13;;
53903;SDS011;39812;52.430;16.936;2024-03-25T09:45:40;4.95;;;3.08;;
53903;SDS011;39812;52.430;16.936;2024-03-25T09:48:06;4.45;;;2.60;;
53903;SDS011;39812;52.430;16.936;2024-03-25T09:50:32;4.03;;;2.58;;
53903;SDS011;39812;52.430;16.936;2024-03-25T09:52:59;4.85;;;3.08;;
53903;SDS011;39812;52.430;16.936;2024-03-25T09:55:25;5.20;;;3.28;;
53903;SDS011;39812;52.430;16.936;2024-03-25T09:57:51;4.47;;;2.60;;
53903;SDS011;39812;52.430;16.936;2024-03-25T10:00:17;4.13;;;2.70;;
53903;SDS011;39812;52.430;16.936;2024-03-25T10:02:43;4.95;;;2.97;;
53903;SDS011;39812;52.430;16.936;2024-03-25T10:05:10;5.82;;;3.85;;
53903;SDS011;39812;52.430;16.936;2024-03-25T10:07:35;6.65;;;3.70;;
53903;SDS011;39812;52.430;16.936;2024-03-25T10:10:04;5.25;;;3.58;;
53903;SDS011;39812;52.430;16.936;2024-03-25T10:12:31;6.05;;;4.32;;
53903;SDS011;39812;52.430;16.936;2024-03-25T10:14:57;6.57;;;4.10;;
53903;SDS011;39812;52.430;16.936;2024-03-25T10:17:23;6.70;;;4.75;;
53903;SDS011;39812;52.430;16.936;2024-03-25T10:19:49;6.72;;;4.30;;
53903;SDS011;39812;52.430;16.936;2024-03-25T10:22:15;6.30;;;4.72;;
53903;SDS011;39812;52.430;16.936;2024-03-25T10:24:41;9.02;;;4.93;;
53903;SDS011;39812;52.430;16.936;2024-03-25T10:27:26;8.27;;;5.53;;
53903;SDS011;39812;52.430;16.936;2024-03-25T10:29:53;8.63;;;5.22;;
53903;SDS011;39812;52.430;16.936;2024-03-25T10:32:22;8.35;;;5.07;;
53903;SDS011;39812;52.430;16.936;2024-03-25T10:34:53;9.18;;;5.50;;
53903;SDS011;39812;52.430;16.936;2024-03-25T10:37:19;6.93;;;4.75;;
53903;SDS011;39812;52.430;16.936;2024-03-25T10:39:47;8.90;;;5.20;;
53903;SDS011;39812;52.430;16.936;2024-03-25T10:42:16;8.43;;;5.10;;
53903;SDS011;39812;52.430;16.936;2024-03-25T10:44:44;7.50;;;4.95;;
53903;SDS011;39812;52.430;16.936;2024-03-25T10:47:11;7.15;;;4.65;;
53903;SDS011;39812;52.430;16.936;2024-03-25T10:49:48;6.75;;;4.78;;
53903;SDS011;39812;52.430;16.936;2024-03-25T10:52:24;8.10;;;5.10;;
53903;SDS011;39812;52.430;16.936;2024-03-25T10:54:51;7.40;;;4.35;;
53903;SDS011;39812;52.430;16.936;2024-03-25T10:57:19;7.68;;;4.90;;
53903;SDS011;39812;52.430;16.936;2024-03-25T10:59:45;6.82;;;4.45;;
53903;SDS011;39812;52.430;16.936;2024-03-25T11:02:11;4.72;;;3.65;;
53903;SDS011;39812;52.430;16.936;2024-03-25T11:04:38;5.32;;;3.80;;
53903;SDS011;39812;52.430;16.936;2024-03-25T11:09:34;4.75;;;2.90;;
53903;SDS011;39812;52.430;16.936;2024-03-25T11:12:01;5.78;;;3.22;;
53903;SDS011;39812;52.430;16.936;2024-03-25T11:14:27;3.85;;;2.63;;
53903;SDS011;39812;52.430;16.936;2024-03-25T11:16:53;4.28;;;2.90;;
53903;SDS011;39812;52.430;16.936;2024-03-25T11:19:20;3.67;;;2.55;;
53903;SDS011;39812;52.430;16.936;2024-03-25T11:21:46;4.22;;;2.60;;
53903;SDS011;39812;52.430;16.936;2024-03-25T11:24:12;3.08;;;2.42;;
53903;SDS011;39812;52.430;16.936;2024-03-25T11:26:41;3.67;;;2.65;;
53903;SDS011;39812;52.430;16.936;2024-03-25T11:29:07;6.10;;;3.38;;
53903;SDS011;39812;52.430;16.936;2024-03-25T11:31:33;3.53;;;2.40;;
53903;SDS011;39812;52.430;16.936;2024-03-25T11:34:06;2.95;;;2.38;;
53903;SDS011;39812;52.430;16.936;2024-03-25T11:36:33;4.05;;;2.50;;
53903;SDS011;39812;52.430;16.936;2024-03-25T11:39:02;4.20;;;2.85;;
53903;SDS011;39812;52.430;16.936;2024-03-25T11:41:32;3.50;;;2.33;;
53903;SDS011;39812;52.430;16.936;2024-03-25T11:43:58;4.43;;;2.60;;
53903;SDS011;39812;52.430;16.936;2024-03-25T11:46:24;5.65;;;2.58;;
53903;SDS011;39812;52.430;16.936;2024-03-25T11:48:50;8.25;;;3.58;;
53903;SDS011;39812;52.430;16.936;2024-03-25T11:51:17;6.35;;;3.17;;
53903;SDS011;39812;52.430;16.936;2024-03-25T11:53:43;7.25;;;3.92;;
53903;SDS011;39812;52.430;16.936;2024-03-25T11:56:08;6.32;;;3.60;;
53903;SDS011;39812;52.430;16.936;2024-03-25T11:58:36;7.50;;;4.20;;
53903;SDS011;39812;52.430;16.936;2024-03-25T12:01:02;10.23;;;4.40;;
53903;SDS011;39812;52.430;16.936;2024-03-25T12:03:28;7.13;;;3.80;;
53903;SDS011;39812;52.430;16.936;2024-03-25T12:05:55;6.82;;;3.55;;
53903;SDS011;39812;52.430;16.936;2024-03-25T12:08:20;6.65;;;3.30;;
53903;SDS011;39812;52.430;16.936;2024-03-25T12:10:50;5.50;;;3.22;;
53903;SDS011;39812;52.430;16.936;2024-03-25T12:13:36;4.88;;;2.70;;
53903;SDS011;39812;52.430;16.936;2024-03-25T12:16:07;3.38;;;2.35;;
53903;SDS011;39812;52.430;16.936;2024-03-25T12:18:33;5.43;;;2.55;;
53903;SDS011;39812;52.430;16.936;2024-03-25T12:21:06;2.88;;;2.05;;
53903;SDS011;39812;52.430;16.936;2024-03-25T12:23:32;3.47;;;2.38;;
53903;SDS011;39812;52.430;16.936;2024-03-25T12:26:01;3.17;;;2.30;;
53903;SDS011;39812;52.430;16.936;2024-03-25T12:28:28;2.92;;;2.33;;
53903;SDS011;39812;52.430;16.936;2024-03-25T12:30:55;4.88;;;2.50;;
53903;SDS011;39812;52.430;16.936;2024-03-25T12:33:22;2.83;;;2.08;;
53903;SDS011;39812;52.430;16.936;2024-03-25T12:35:48;2.85;;;1.63;;
53903;SDS011;39812;52.430;16.936;2024-03-25T12:38:53;2.38;;;1.70;;
53903;SDS011;39812;52.430;16.936;2024-03-25T12:41:08;4.10;;;2.00;;
53903;SDS011;39812;52.430;16.936;2024-03-25T12:43:35;3.05;;;1.88;;
53903;SDS011;39812;52.430;16.936;2024-03-25T12:46:02;4.80;;;2.35;;
53903;SDS011;39812;52.430;16.936;2024-03-25T12:48:30;3.03;;;1.77;;
53903;SDS011;39812;52.430;16.936;2024-03-25T12:50:57;2.58;;;1.90;;
53903;SDS011;39812;52.430;16.936;2024-03-25T12:53:22;7.78;;;2.42;;
53903;SDS011;39812;52.430;16.936;2024-03-25T12:55:48;3.15;;;2.10;;
53903;SDS011;39812;52.430;16.936;2024-03-25T12:58:14;3.28;;;1.73;;
53903;SDS011;39812;52.430;16.936;2024-03-25T13:00:40;2.78;;;1.92;;
53903;SDS011;39812;52.430;16.936;2024-03-25T13:03:07;3.85;;;2.00;;
53903;SDS011;39812;52.430;16.936;2024-03-25T13:05:33;3.60;;;1.88;;
53903;SDS011;39812;52.430;16.936;2024-03-25T13:08:00;2.63;;;1.60;;
53903;SDS011;39812;52.430;16.936;2024-03-25T13:10:26;2.75;;;1.85;;
53903;SDS011;39812;52.430;16.936;2024-03-25T13:12:52;4.55;;;2.05;;
53903;SDS011;39812;52.430;16.936;2024-03-25T13:15:18;3.53;;;2.28;;
53903;SDS011;39812;52.430;16.936;2024-03-25T13:17:44;3.10;;;2.17;;
53903;SDS011;39812;52.430;16.936;2024-03-25T13:20:09;3.03;;;2.17;;
53903;SDS011;39812;52.430;16.936;2024-03-25T13:22:35;8.55;;;2.83;;
53903;SDS011;39812;52.430;16.936;2024-03-25T13:25:01;5.68;;;2.55;;
53903;SDS011;39812;52.430;16.936;2024-03-25T13:27:27;4.50;;;2.50;;
53903;SDS011;39812;52.430;16.936;2024-03-25T13:29:52;4.80;;;3.00;;
53903;SDS011;39812;52.430;16.936;2024-03-25T13:32:19;4.53;;;2.50;;
53903;SDS011;39812;52.430;16.936;2024-03-25T13:34:45;4.15;;;2.65;;
53903;SDS011;39812;52.430;16.936;2024-03-25T13:37:11;4.53;;;2.72;;
53903;SDS011;39812;52.430;16.936;2024-03-25T13:39:37;5.05;;;2.58;;
53903;SDS011;39812;52.430;16.936;2024-03-25T13:42:04;3.25;;;2.00;;
53903;SDS011;39812;52.430;16.936;2024-03-25T13:44:30;3.05;;;2.15;;
53903;SDS011;39812;52.430;16.936;2024-03-25T13:46:55;2.20;;;1.10;;
53903;SDS011;39812;52.430;16.936;2024-03-25T13:49:21;2.50;;;1.70;;
53903;SDS011;39812;52.430;16.936;2024-03-25T13:51:50;2.45;;;1.50;;
53903;SDS011;39812;52.430;16.936;2024-03-25T13:54:20;3.15;;;1.55;;
53903;SDS011;39812;52.430;16.936;2024-03-25T13:56:46;2.63;;;1.80;;
53903;SDS011;39812;52.430;16.936;2024-03-25T13:59:12;2.72;;;2.00;;
53903;SDS011;39812;52.430;16.936;2024-03-25T14:01:38;2.85;;;2.20;;
53903;SDS011;39812;52.430;16.936;2024-03-25T14:04:05;4.22;;;2.20;;
53903;SDS011;39812;52.430;16.936;2024-03-25T14:06:31;3.90;;;2.33;;
53903;SDS011;39812;52.430;16.936;2024-03-25T14:08:58;3.75;;;2.40;;
53903;SDS011;39812;52.430;16.936;2024-03-25T14:11:24;4.30;;;2.33;;
53903;SDS011;39812;52.430;16.936;2024-03-25T14:13:50;3.13;;;2.00;;
53903;SDS011;39812;52.430;16.936;2024-03-25T14:16:15;3.85;;;2.42;;
53903;SDS011;39812;52.430;16.936;2024-03-25T14:18:41;2.75;;;2.15;;
53903;SDS011;39812;52.430;16.936;2024-03-25T14:21:06;2.60;;;1.85;;
53903;SDS011;39812;52.430;16.936;2024-03-25T14:23:32;2.35;;;1.80;;
53903;SDS011;39812;52.430;16.936;2024-03-25T14:25:58;5.20;;;2.10;;
53903;SDS011;39812;52.430;16.936;2024-03-25T14:28:23;2.78;;;1.88;;
53903;SDS011;39812;52.430;16.936;2024-03-25T14:30:49;3.30;;;2.15;;